Station Historical Data
Daily Summary for March 13, 2017 Units:  Both    English   Metric
« Previous Day
Next Day »
Daily Weekly Monthly Yearly Custom
  High: Low: Average:
Temperature: 21.7 °F /  -5.7 °C 11.7 °F /  -11.3 °C 17.1 °F /  -8.3 °C
Dew Point: 15.8 °F /  -9 °C 5.9 °F /  -14.5 °C 11 °F /  -11.7 °C
Humidity: 86% 65% 77%
Wind Speed: 13.0mph /  20.9km/h - 4mph /  6.4km/h
Wind Gust: 21.0mph /  33.8km/h - -
Wind- - ENE
Pressure: 30.53 in /  1033.7 hPa 30.24 in /  1023.9 hPa -
Precipitation: 0.00 in /  0 mm    
Historical Graphs
 
 
Tabular Data for March 13, 2017
Time Temperature Dew Point Pressure Wind Wind Speed Wind Gust Humidity Rainfall Rate (Hourly)
00:04 14.4 °F /  -9.8 °C 6.7 °F /  -14.1 °C 30.49in /  1032.4hPa Calm   3.0mph /  4.8km/h 71% 0.00in /  0mm
00:09 14.9 °F /  -9.5 °C 7.2 °F /  -13.8 °C 30.49in /  1032.4hPa Calm   4.0mph /  6.4km/h 71% 0.00in /  0mm
00:14 15.1 °F /  -9.4 °C 6.8 °F /  -14 °C 30.49in /  1032.4hPa NNW 1.0mph /  1.6km/h 4.0mph /  6.4km/h 69% 0.00in /  0mm
00:19 15.0 °F /  -9.4 °C 7.0 °F /  -13.9 °C 30.49in /  1032.4hPa NNW 1.0mph /  1.6km/h 4.0mph /  6.4km/h 70% 0.00in /  0mm
00:24 15.0 °F /  -9.4 °C 7.0 °F /  -13.9 °C 30.48in /  1032.1hPa NNW 1.0mph /  1.6km/h 4.0mph /  6.4km/h 70% 0.00in /  0mm
00:29 15.3 °F /  -9.3 °C 6.9 °F /  -13.9 °C 30.48in /  1032.1hPa North 1.0mph /  1.6km/h 3.0mph /  4.8km/h 69% 0.00in /  0mm
00:34 15.2 °F /  -9.3 °C 6.8 °F /  -14 °C 30.49in /  1032.4hPa NW 1.0mph /  1.6km/h 4.0mph /  6.4km/h 69% 0.00in /  0mm
00:39 15.1 °F /  -9.4 °C 6.8 °F /  -14 °C 30.49in /  1032.4hPa NW 1.0mph /  1.6km/h 3.0mph /  4.8km/h 69% 0.00in /  0mm
00:44 14.8 °F /  -9.6 °C 6.8 °F /  -14 °C 30.49in /  1032.4hPa NW 1.0mph /  1.6km/h 3.0mph /  4.8km/h 70% 0.00in /  0mm
00:49 14.7 °F /  -9.6 °C 6.7 °F /  -14.1 °C 30.49in /  1032.4hPa Calm   4.0mph /  6.4km/h 70% 0.00in /  0mm
00:54 14.8 °F /  -9.6 °C 6.8 °F /  -14 °C 30.50in /  1032.7hPa Calm   3.0mph /  4.8km/h 70% 0.00in /  0mm
00:59 14.6 °F /  -9.7 °C 6.3 °F /  -14.3 °C 30.49in /  1032.4hPa Calm   3.0mph /  4.8km/h 69% 0.00in /  0mm
01:04 14.3 °F /  -9.8 °C 6.6 °F /  -14.1 °C 30.49in /  1032.4hPa Calm   2.0mph /  3.2km/h 71% 0.00in /  0mm
01:09 14.1 °F /  -9.9 °C 6.7 °F /  -14.1 °C 30.50in /  1032.7hPa Calm   2.0mph /  3.2km/h 72% 0.00in /  0mm
01:14 13.8 °F /  -10.1 °C 6.4 °F /  -14.2 °C 30.50in /  1032.7hPa Calm     72% 0.00in /  0mm
01:19 13.8 °F /  -10.1 °C 6.7 °F /  -14.1 °C 30.50in /  1032.7hPa Calm     73% 0.00in /  0mm
01:24 13.7 °F /  -10.2 °C 6.6 °F /  -14.1 °C 30.50in /  1032.7hPa Calm     73% 0.00in /  0mm
01:29 13.6 °F /  -10.2 °C 6.5 °F /  -14.2 °C 30.50in /  1032.7hPa Calm     73% 0.00in /  0mm
01:34 13.4 °F /  -10.3 °C 6.4 °F /  -14.2 °C 30.49in /  1032.4hPa Calm     73% 0.00in /  0mm
01:39 13.2 °F /  -10.4 °C 6.5 °F /  -14.2 °C 30.50in /  1032.7hPa Calm     74% 0.00in /  0mm
01:44 13.0 °F /  -10.6 °C 6.3 °F /  -14.3 °C 30.50in /  1032.7hPa Calm     74% 0.00in /  0mm
01:49 12.5 °F /  -10.8 °C 6.1 °F /  -14.4 °C 30.50in /  1032.7hPa Calm     75% 0.00in /  0mm
01:54 12.3 °F /  -10.9 °C 6.5 °F /  -14.2 °C 30.50in /  1032.7hPa Calm     77% 0.00in /  0mm
01:59 12.1 °F /  -11.1 °C 6.3 °F /  -14.3 °C 30.50in /  1032.7hPa Calm     77% 0.00in /  0mm
02:04 11.7 °F /  -11.3 °C 5.9 °F /  -14.5 °C 30.50in /  1032.7hPa Calm     77% 0.00in /  0mm
02:09 11.7 °F /  -11.3 °C 6.2 °F /  -14.3 °C 30.50in /  1032.7hPa Calm     78% 0.00in /  0mm
02:14 11.9 °F /  -11.2 °C 6.4 °F /  -14.2 °C 30.50in /  1032.7hPa Calm     78% 0.00in /  0mm
02:19 12.4 °F /  -10.9 °C 7.1 °F /  -13.8 °C 30.51in /  1033.1hPa Calm     79% 0.00in /  0mm
02:24 12.5 °F /  -10.8 °C 6.9 °F /  -13.9 °C 30.51in /  1033.1hPa Calm     78% 0.00in /  0mm
02:29 12.3 °F /  -10.9 °C 6.5 °F /  -14.2 °C 30.51in /  1033.1hPa Calm   1.0mph /  1.6km/h 77% 0.00in /  0mm
02:34 12.4 °F /  -10.9 °C 6.8 °F /  -14 °C 30.51in /  1033.1hPa Calm   2.0mph /  3.2km/h 78% 0.00in /  0mm
02:39 12.5 °F /  -10.8 °C 6.9 °F /  -13.9 °C 30.51in /  1033.1hPa Calm   2.0mph /  3.2km/h 78% 0.00in /  0mm
02:44 12.9 °F /  -10.6 °C 7.3 °F /  -13.7 °C 30.51in /  1033.1hPa Calm   1.0mph /  1.6km/h 78% 0.00in /  0mm
02:49 13.1 °F /  -10.5 °C 7.5 °F /  -13.6 °C 30.51in /  1033.1hPa Calm     78% 0.00in /  0mm
02:54 13.6 °F /  -10.2 °C 7.7 °F /  -13.5 °C 30.51in /  1033.1hPa Calm   3.0mph /  4.8km/h 77% 0.00in /  0mm
02:59 14.2 °F /  -9.9 °C 8.0 °F /  -13.3 °C 30.51in /  1033.1hPa Calm   2.0mph /  3.2km/h 76% 0.00in /  0mm
03:04 14.4 °F /  -9.8 °C 7.9 °F /  -13.4 °C 30.51in /  1033.1hPa NNW 1.0mph /  1.6km/h 2.0mph /  3.2km/h 75% 0.00in /  0mm
03:09 14.8 °F /  -9.6 °C 8.0 °F /  -13.3 °C 30.51in /  1033.1hPa NNW 1.0mph /  1.6km/h 2.0mph /  3.2km/h 74% 0.00in /  0mm
03:14 14.9 °F /  -9.5 °C 8.1 °F /  -13.3 °C 30.51in /  1033.1hPa NE 2.0mph /  3.2km/h 3.0mph /  4.8km/h 74% 0.00in /  0mm
03:19 15.0 °F /  -9.4 °C 7.9 °F /  -13.4 °C 30.51in /  1033.1hPa Calm   4.0mph /  6.4km/h 73% 0.00in /  0mm
03:24 15.1 °F /  -9.4 °C 8.0 °F /  -13.3 °C 30.51in /  1033.1hPa NE 4.0mph /  6.4km/h 5.0mph /  8km/h 73% 0.00in /  0mm
03:29 15.2 °F /  -9.3 °C 8.4 °F /  -13.1 °C 30.50in /  1032.7hPa NE 2.0mph /  3.2km/h 5.0mph /  8km/h 74% 0.00in /  0mm
03:34 15.3 °F /  -9.3 °C 8.2 °F /  -13.2 °C 30.51in /  1033.1hPa NE 2.0mph /  3.2km/h 7.0mph /  11.3km/h 73% 0.00in /  0mm
03:39 15.3 °F /  -9.3 °C 8.2 °F /  -13.2 °C 30.51in /  1033.1hPa NNE 2.0mph /  3.2km/h 7.0mph /  11.3km/h 73% 0.00in /  0mm
03:44 15.3 °F /  -9.3 °C 8.2 °F /  -13.2 °C 30.50in /  1032.7hPa NNE 2.0mph /  3.2km/h 5.0mph /  8km/h 73% 0.00in /  0mm
03:49 15.2 °F /  -9.3 °C 8.1 °F /  -13.3 °C 30.50in /  1032.7hPa NNE 4.0mph /  6.4km/h 5.0mph /  8km/h 73% 0.00in /  0mm
03:54 15.2 °F /  -9.3 °C 8.1 °F /  -13.3 °C 30.50in /  1032.7hPa NE 1.0mph /  1.6km/h 5.0mph /  8km/h 73% 0.00in /  0mm
03:59 15.1 °F /  -9.4 °C 8.0 °F /  -13.3 °C 30.50in /  1032.7hPa NE 2.0mph /  3.2km/h 3.0mph /  4.8km/h 73% 0.00in /  0mm
04:04 15.0 °F /  -9.4 °C 8.2 °F /  -13.2 °C 30.50in /  1032.7hPa NE 2.0mph /  3.2km/h 5.0mph /  8km/h 74% 0.00in /  0mm
04:09 14.8 °F /  -9.6 °C 8.0 °F /  -13.3 °C 30.50in /  1032.7hPa NE 2.0mph /  3.2km/h 5.0mph /  8km/h 74% 0.00in /  0mm
04:14 14.7 °F /  -9.6 °C 7.9 °F /  -13.4 °C 30.49in /  1032.4hPa NE 2.0mph /  3.2km/h 4.0mph /  6.4km/h 74% 0.00in /  0mm
04:19 14.7 °F /  -9.6 °C 7.9 °F /  -13.4 °C 30.50in /  1032.7hPa NE 2.0mph /  3.2km/h 5.0mph /  8km/h 74% 0.00in /  0mm
04:24 14.6 °F /  -9.7 °C 7.8 °F /  -13.4 °C 30.50in /  1032.7hPa NE 2.0mph /  3.2km/h 4.0mph /  6.4km/h 74% 0.00in /  0mm
04:29 14.6 °F /  -9.7 °C 7.8 °F /  -13.4 °C 30.49in /  1032.4hPa NE 1.0mph /  1.6km/h 5.0mph /  8km/h 74% 0.00in /  0mm
04:34 14.6 °F /  -9.7 °C 7.8 °F /  -13.4 °C 30.49in /  1032.4hPa NE 2.0mph /  3.2km/h 5.0mph /  8km/h 74% 0.00in /  0mm
04:39 14.6 °F /  -9.7 °C 7.8 °F /  -13.4 °C 30.49in /  1032.4hPa NE 1.0mph /  1.6km/h 4.0mph /  6.4km/h 74% 0.00in /  0mm
04:44 14.5 °F /  -9.7 °C 7.7 °F /  -13.5 °C 30.49in /  1032.4hPa NE 1.0mph /  1.6km/h 3.0mph /  4.8km/h 74% 0.00in /  0mm
04:49 14.6 °F /  -9.7 °C 7.8 °F /  -13.4 °C 30.49in /  1032.4hPa NE 2.0mph /  3.2km/h 5.0mph /  8km/h 74% 0.00in /  0mm
04:54 14.7 °F /  -9.6 °C 7.9 °F /  -13.4 °C 30.49in /  1032.4hPa NE 2.0mph /  3.2km/h 5.0mph /  8km/h 74% 0.00in /  0mm
04:59 14.8 °F /  -9.6 °C 7.7 °F /  -13.5 °C 30.49in /  1032.4hPa NE 3.0mph /  4.8km/h 6.0mph /  9.7km/h 73% 0.00in /  0mm
05:04 14.8 °F /  -9.6 °C 7.7 °F /  -13.5 °C 30.49in /  1032.4hPa NE 3.0mph /  4.8km/h 6.0mph /  9.7km/h 73% 0.00in /  0mm
05:09 14.8 °F /  -9.6 °C 7.7 °F /  -13.5 °C 30.49in /  1032.4hPa NE 3.0mph /  4.8km/h 5.0mph /  8km/h 73% 0.00in /  0mm
05:14 14.8 °F /  -9.6 °C 7.7 °F /  -13.5 °C 30.50in /  1032.7hPa NE 2.0mph /  3.2km/h 4.0mph /  6.4km/h 73% 0.00in /  0mm
05:19 14.7 °F /  -9.6 °C 7.6 °F /  -13.6 °C 30.50in /  1032.7hPa NE 2.0mph /  3.2km/h 4.0mph /  6.4km/h 73% 0.00in /  0mm
05:24 14.8 °F /  -9.6 °C 7.7 °F /  -13.5 °C 30.50in /  1032.7hPa ENE 2.0mph /  3.2km/h 4.0mph /  6.4km/h 73% 0.00in /  0mm
05:29 14.6 °F /  -9.7 °C 7.8 °F /  -13.4 °C 30.50in /  1032.7hPa Calm   3.0mph /  4.8km/h 74% 0.00in /  0mm
05:34 14.5 °F /  -9.7 °C 8.0 °F /  -13.3 °C 30.50in /  1032.7hPa NE 1.0mph /  1.6km/h 3.0mph /  4.8km/h 75% 0.00in /  0mm
05:39 14.1 °F /  -9.9 °C 7.9 °F /  -13.4 °C 30.50in /  1032.7hPa SE 1.0mph /  1.6km/h 4.0mph /  6.4km/h 76% 0.00in /  0mm
05:44 13.7 °F /  -10.2 °C 7.5 °F /  -13.6 °C 30.50in /  1032.7hPa SE 1.0mph /  1.6km/h 4.0mph /  6.4km/h 76% 0.00in /  0mm
05:49 13.5 °F /  -10.3 °C 7.6 °F /  -13.6 °C 30.49in /  1032.4hPa East 1.0mph /  1.6km/h 3.0mph /  4.8km/h 77% 0.00in /  0mm
05:54 13.5 °F /  -10.3 °C 7.6 °F /  -13.6 °C 30.49in /  1032.4hPa ENE 1.0mph /  1.6km/h 3.0mph /  4.8km/h 77% 0.00in /  0mm
05:59 13.5 °F /  -10.3 °C 7.6 °F /  -13.6 °C 30.49in /  1032.4hPa East 1.0mph /  1.6km/h 4.0mph /  6.4km/h 77% 0.00in /  0mm
06:04 13.5 °F /  -10.3 °C 7.6 °F /  -13.6 °C 30.49in /  1032.4hPa ESE 2.0mph /  3.2km/h 4.0mph /  6.4km/h 77% 0.00in /  0mm
06:09 13.5 °F /  -10.3 °C 7.6 °F /  -13.6 °C 30.50in /  1032.7hPa ESE 1.0mph /  1.6km/h 4.0mph /  6.4km/h 77% 0.00in /  0mm
06:14 13.5 °F /  -10.3 °C 7.6 °F /  -13.6 °C 30.50in /  1032.7hPa ESE 1.0mph /  1.6km/h 4.0mph /  6.4km/h 77% 0.00in /  0mm
06:19 13.7 °F /  -10.2 °C 7.8 °F /  -13.4 °C 30.50in /  1032.7hPa Calm   2.0mph /  3.2km/h 77% 0.00in /  0mm
06:24 13.8 °F /  -10.1 °C 7.6 °F /  -13.6 °C 30.50in /  1032.7hPa ESE 1.0mph /  1.6km/h 2.0mph /  3.2km/h 76% 0.00in /  0mm
06:29 13.9 °F /  -10.1 °C 7.7 °F /  -13.5 °C 30.50in /  1032.7hPa ESE 1.0mph /  1.6km/h 3.0mph /  4.8km/h 76% 0.00in /  0mm
06:34 14.0 °F /  -10 °C 7.8 °F /  -13.4 °C 30.51in /  1033.1hPa Calm   3.0mph /  4.8km/h 76% 0.00in /  0mm
06:39 14.1 °F /  -9.9 °C 7.9 °F /  -13.4 °C 30.51in /  1033.1hPa ESE 1.0mph /  1.6km/h 2.0mph /  3.2km/h 76% 0.00in /  0mm
06:44 14.2 °F /  -9.9 °C 8.0 °F /  -13.3 °C 30.51in /  1033.1hPa ENE 1.0mph /  1.6km/h 3.0mph /  4.8km/h 76% 0.00in /  0mm
06:49 14.4 °F /  -9.8 °C 7.9 °F /  -13.4 °C 30.51in /  1033.1hPa ENE 1.0mph /  1.6km/h 3.0mph /  4.8km/h 75% 0.00in /  0mm
06:54 14.4 °F /  -9.8 °C 7.9 °F /  -13.4 °C 30.52in /  1033.4hPa ENE 1.0mph /  1.6km/h 5.0mph /  8km/h 75% 0.00in /  0mm
06:59 14.5 °F /  -9.7 °C 8.0 °F /  -13.3 °C 30.52in /  1033.4hPa ENE 1.0mph /  1.6km/h 5.0mph /  8km/h 75% 0.00in /  0mm
07:04 14.5 °F /  -9.7 °C 8.0 °F /  -13.3 °C 30.52in /  1033.4hPa Calm   2.0mph /  3.2km/h 75% 0.00in /  0mm
07:09 14.6 °F /  -9.7 °C 8.1 °F /  -13.3 °C 30.51in /  1033.1hPa ENE 1.0mph /  1.6km/h 2.0mph /  3.2km/h 75% 0.00in /  0mm
07:14 14.7 °F /  -9.6 °C 8.2 °F /  -13.2 °C 30.51in /  1033.1hPa NE 3.0mph /  4.8km/h 5.0mph /  8km/h 75% 0.00in /  0mm
07:19 14.8 °F /  -9.6 °C 8.3 °F /  -13.2 °C 30.51in /  1033.1hPa ENE 1.0mph /  1.6km/h 4.0mph /  6.4km/h 75% 0.00in /  0mm
07:24 14.8 °F /  -9.6 °C 8.0 °F /  -13.3 °C 30.51in /  1033.1hPa ENE 1.0mph /  1.6km/h 4.0mph /  6.4km/h 74% 0.00in /  0mm
07:29 14.8 °F /  -9.6 °C 8.3 °F /  -13.2 °C 30.51in /  1033.1hPa ENE 1.0mph /  1.6km/h 3.0mph /  4.8km/h 75% 0.00in /  0mm
07:34 14.9 °F /  -9.5 °C 8.1 °F /  -13.3 °C 30.51in /  1033.1hPa ENE 2.0mph /  3.2km/h 3.0mph /  4.8km/h 74% 0.00in /  0mm
07:39 15.0 °F /  -9.4 °C 8.2 °F /  -13.2 °C 30.51in /  1033.1hPa ENE 1.0mph /  1.6km/h 3.0mph /  4.8km/h 74% 0.00in /  0mm
07:44 15.1 °F /  -9.4 °C 8.3 °F /  -13.2 °C 30.52in /  1033.4hPa ENE 1.0mph /  1.6km/h 2.0mph /  3.2km/h 74% 0.00in /  0mm
07:49 15.1 °F /  -9.4 °C 8.3 °F /  -13.2 °C 30.52in /  1033.4hPa NE 2.0mph /  3.2km/h 3.0mph /  4.8km/h 74% 0.00in /  0mm
07:54 15.1 °F /  -9.4 °C 8.3 °F /  -13.2 °C 30.52in /  1033.4hPa ENE 2.0mph /  3.2km/h 5.0mph /  8km/h 74% 0.00in /  0mm
07:59 15.2 °F /  -9.3 °C 8.4 °F /  -13.1 °C 30.52in /  1033.4hPa ENE 2.0mph /  3.2km/h 5.0mph /  8km/h 74% 0.00in /  0mm
08:04 15.4 °F /  -9.2 °C 8.6 °F /  -13 °C 30.52in /  1033.4hPa ENE 1.0mph /  1.6km/h 4.0mph /  6.4km/h 74% 0.00in /  0mm
08:09 15.5 °F /  -9.2 °C 8.7 °F /  -12.9 °C 30.52in /  1033.4hPa ENE 2.0mph /  3.2km/h 3.0mph /  4.8km/h 74% 0.00in /  0mm
08:14 15.6 °F /  -9.1 °C 8.5 °F /  -13.1 °C 30.53in /  1033.7hPa ENE 1.0mph /  1.6km/h 3.0mph /  4.8km/h 73% 0.00in /  0mm
08:19 15.7 °F /  -9.1 °C 8.6 °F /  -13 °C 30.53in /  1033.7hPa SE 2.0mph /  3.2km/h 3.0mph /  4.8km/h 73% 0.00in /  0mm
08:24 15.6 °F /  -9.1 °C 8.5 °F /  -13.1 °C 30.53in /  1033.7hPa ESE 1.0mph /  1.6km/h 3.0mph /  4.8km/h 73% 0.00in /  0mm
08:29 15.5 °F /  -9.2 °C 8.4 °F /  -13.1 °C 30.53in /  1033.7hPa SE 1.0mph /  1.6km/h 3.0mph /  4.8km/h 73% 0.00in /  0mm
08:34 15.6 °F /  -9.1 °C 8.2 °F /  -13.2 °C 30.53in /  1033.7hPa SE 1.0mph /  1.6km/h 3.0mph /  4.8km/h 72% 0.00in /  0mm
08:39 15.8 °F /  -9 °C 8.1 °F /  -13.3 °C 30.53in /  1033.7hPa ESE 1.0mph /  1.6km/h 3.0mph /  4.8km/h 71% 0.00in /  0mm
08:44 16.0 °F /  -8.9 °C 8.6 °F /  -13 °C 30.53in /  1033.7hPa Calm   3.0mph /  4.8km/h 72% 0.00in /  0mm
08:49 16.2 °F /  -8.8 °C 8.4 °F /  -13.1 °C 30.53in /  1033.7hPa East 1.0mph /  1.6km/h 5.0mph /  8km/h 71% 0.00in /  0mm
08:54 16.4 °F /  -8.7 °C 8.6 °F /  -13 °C 30.52in /  1033.4hPa ENE 3.0mph /  4.8km/h 3.0mph /  4.8km/h 71% 0.00in /  0mm
08:59 16.5 °F /  -8.6 °C 8.4 °F /  -13.1 °C 30.52in /  1033.4hPa ENE 2.0mph /  3.2km/h 7.0mph /  11.3km/h 70% 0.00in /  0mm
09:04 16.6 °F /  -8.6 °C 8.5 °F /  -13.1 °C 30.52in /  1033.4hPa East 3.0mph /  4.8km/h 7.0mph /  11.3km/h 70% 0.00in /  0mm
09:09 16.6 °F /  -8.6 °C 8.5 °F /  -13.1 °C 30.52in /  1033.4hPa East 3.0mph /  4.8km/h 6.0mph /  9.7km/h 70% 0.00in /  0mm
09:14 16.8 °F /  -8.4 °C 8.4 °F /  -13.1 °C 30.52in /  1033.4hPa ESE 3.0mph /  4.8km/h 7.0mph /  11.3km/h 69% 0.00in /  0mm
09:19 16.8 °F /  -8.4 °C 8.4 °F /  -13.1 °C 30.52in /  1033.4hPa Calm   4.0mph /  6.4km/h 69% 0.00in /  0mm
09:24 16.8 °F /  -8.4 °C 8.1 °F /  -13.3 °C 30.52in /  1033.4hPa East 1.0mph /  1.6km/h 8.0mph /  12.9km/h 68% 0.00in /  0mm
09:29 16.9 °F /  -8.4 °C 8.2 °F /  -13.2 °C 30.51in /  1033.1hPa ENE 2.0mph /  3.2km/h 7.0mph /  11.3km/h 68% 0.00in /  0mm
09:34 17.0 °F /  -8.3 °C 8.3 °F /  -13.2 °C 30.51in /  1033.1hPa NE 5.0mph /  8km/h 8.0mph /  12.9km/h 68% 0.00in /  0mm
09:39 17.0 °F /  -8.3 °C 7.9 °F /  -13.4 °C 30.52in /  1033.4hPa ENE 3.0mph /  4.8km/h 8.0mph /  12.9km/h 67% 0.00in /  0mm
09:44 17.1 °F /  -8.3 °C 8.0 °F /  -13.3 °C 30.51in /  1033.1hPa ENE 3.0mph /  4.8km/h 8.0mph /  12.9km/h 67% 0.00in /  0mm
09:49 17.2 °F /  -8.2 °C 8.4 °F /  -13.1 °C 30.51in /  1033.1hPa NE 3.0mph /  4.8km/h 7.0mph /  11.3km/h 68% 0.00in /  0mm
09:54 17.5 °F /  -8.1 °C 8.4 °F /  -13.1 °C 30.50in /  1032.7hPa East 3.0mph /  4.8km/h 5.0mph /  8km/h 67% 0.00in /  0mm
09:59 17.6 °F /  -8 °C 8.5 °F /  -13.1 °C 30.50in /  1032.7hPa East 8.0mph /  12.9km/h 8.0mph /  12.9km/h 67% 0.00in /  0mm
10:04 17.6 °F /  -8 °C 8.2 °F /  -13.2 °C 30.50in /  1032.7hPa ENE 3.0mph /  4.8km/h 8.0mph /  12.9km/h 66% 0.00in /  0mm
10:09 17.6 °F /  -8 °C 8.5 °F /  -13.1 °C 30.50in /  1032.7hPa ENE 3.0mph /  4.8km/h 8.0mph /  12.9km/h 67% 0.00in /  0mm
10:14 17.7 °F /  -7.9 °C 8.6 °F /  -13 °C 30.49in /  1032.4hPa East 1.0mph /  1.6km/h 10.0mph /  16.1km/h 67% 0.00in /  0mm
10:19 18.1 °F /  -7.7 °C 9.0 °F /  -12.8 °C 30.49in /  1032.4hPa NNE 4.0mph /  6.4km/h 8.0mph /  12.9km/h 67% 0.00in /  0mm
10:24 18.1 °F /  -7.7 °C 8.6 °F /  -13 °C 30.49in /  1032.4hPa East 5.0mph /  8km/h 10.0mph /  16.1km/h 66% 0.00in /  0mm
10:29 18.0 °F /  -7.8 °C 8.9 °F /  -12.8 °C 30.48in /  1032.1hPa East 2.0mph /  3.2km/h 7.0mph /  11.3km/h 67% 0.00in /  0mm
10:34 18.0 °F /  -7.8 °C 8.5 °F /  -13.1 °C 30.47in /  1031.7hPa NE 2.0mph /  3.2km/h 10.0mph /  16.1km/h 66% 0.00in /  0mm
10:39 18.3 °F /  -7.6 °C 9.2 °F /  -12.7 °C 30.48in /  1032.1hPa East 4.0mph /  6.4km/h 10.0mph /  16.1km/h 67% 0.00in /  0mm
10:44 18.6 °F /  -7.4 °C 9.1 °F /  -12.7 °C 30.48in /  1032.1hPa ENE 4.0mph /  6.4km/h 8.0mph /  12.9km/h 66% 0.00in /  0mm
10:49 18.5 °F /  -7.5 °C 9.0 °F /  -12.8 °C 30.47in /  1031.7hPa ENE 4.0mph /  6.4km/h 9.0mph /  14.5km/h 66% 0.00in /  0mm
10:54 18.5 °F /  -7.5 °C 9.4 °F /  -12.6 °C 30.47in /  1031.7hPa ESE 4.0mph /  6.4km/h 9.0mph /  14.5km/h 67% 0.00in /  0mm
10:59 18.9 °F /  -7.3 °C 10.1 °F /  -12.2 °C 30.47in /  1031.7hPa ESE 3.0mph /  4.8km/h 9.0mph /  14.5km/h 68% 0.00in /  0mm
11:04 18.9 °F /  -7.3 °C 9.4 °F /  -12.6 °C 30.47in /  1031.7hPa ESE 3.0mph /  4.8km/h 9.0mph /  14.5km/h 66% 0.00in /  0mm
11:09 19.0 °F /  -7.2 °C 9.5 °F /  -12.5 °C 30.47in /  1031.7hPa ENE 4.0mph /  6.4km/h 8.0mph /  12.9km/h 66% 0.00in /  0mm
11:14 19.3 °F /  -7.1 °C 10.1 °F /  -12.2 °C 30.47in /  1031.7hPa ENE 2.0mph /  3.2km/h 8.0mph /  12.9km/h 67% 0.00in /  0mm
11:19 19.4 °F /  -7 °C 10.2 °F /  -12.1 °C 30.47in /  1031.7hPa East 3.0mph /  4.8km/h 9.0mph /  14.5km/h 67% 0.00in /  0mm
11:24 19.1 °F /  -7.2 °C 9.6 °F /  -12.4 °C 30.47in /  1031.7hPa SE 3.0mph /  4.8km/h 7.0mph /  11.3km/h 66% 0.00in /  0mm
11:29 19.7 °F /  -6.8 °C 10.5 °F /  -11.9 °C 30.47in /  1031.7hPa NE 4.0mph /  6.4km/h 7.0mph /  11.3km/h 67% 0.00in /  0mm
11:34 19.7 °F /  -6.8 °C 10.2 °F /  -12.1 °C 30.46in /  1031.4hPa NE 1.0mph /  1.6km/h 9.0mph /  14.5km/h 66% 0.00in /  0mm
11:39 20.0 °F /  -6.7 °C 10.5 °F /  -11.9 °C 30.46in /  1031.4hPa ESE 4.0mph /  6.4km/h 7.0mph /  11.3km/h 66% 0.00in /  0mm
11:44 20.1 °F /  -6.6 °C 10.6 °F /  -11.9 °C 30.46in /  1031.4hPa ENE 3.0mph /  4.8km/h 7.0mph /  11.3km/h 66% 0.00in /  0mm
11:49 20.0 °F /  -6.7 °C 10.1 °F /  -12.2 °C 30.46in /  1031.4hPa East 3.0mph /  4.8km/h 9.0mph /  14.5km/h 65% 0.00in /  0mm
11:54 20.3 °F /  -6.5 °C 11.1 °F /  -11.6 °C 30.45in /  1031hPa SSE 3.0mph /  4.8km/h 8.0mph /  12.9km/h 67% 0.00in /  0mm
11:59 20.0 °F /  -6.7 °C 10.8 °F /  -11.8 °C 30.45in /  1031hPa ESE 3.0mph /  4.8km/h 8.0mph /  12.9km/h 67% 0.00in /  0mm
12:04 20.6 °F /  -6.3 °C 11.7 °F /  -11.3 °C 30.45in /  1031hPa ESE 3.0mph /  4.8km/h 7.0mph /  11.3km/h 68% 0.00in /  0mm
12:09 20.5 °F /  -6.4 °C 11.3 °F /  -11.5 °C 30.45in /  1031hPa ESE 3.0mph /  4.8km/h 8.0mph /  12.9km/h 67% 0.00in /  0mm
12:14 20.1 °F /  -6.6 °C 10.9 °F /  -11.7 °C 30.45in /  1031hPa SE 2.0mph /  3.2km/h 9.0mph /  14.5km/h 67% 0.00in /  0mm
12:19 20.5 °F /  -6.4 °C 10.9 °F /  -11.7 °C 30.45in /  1031hPa NE 3.0mph /  4.8km/h 10.0mph /  16.1km/h 66% 0.00in /  0mm
12:24 20.5 °F /  -6.4 °C 10.9 °F /  -11.7 °C 30.45in /  1031hPa NE 3.0mph /  4.8km/h 8.0mph /  12.9km/h 66% 0.00in /  0mm
12:29 20.6 °F /  -6.3 °C 10.7 °F /  -11.8 °C 30.45in /  1031hPa East 7.0mph /  11.3km/h 7.0mph /  11.3km/h 65% 0.00in /  0mm
12:34 20.6 °F /  -6.3 °C 11.4 °F /  -11.4 °C 30.44in /  1030.7hPa East 1.0mph /  1.6km/h 7.0mph /  11.3km/h 67% 0.00in /  0mm
12:39 21.2 °F /  -6 °C 11.9 °F /  -11.2 °C 30.44in /  1030.7hPa East 2.0mph /  3.2km/h 7.0mph /  11.3km/h 67% 0.00in /  0mm
12:44 20.9 °F /  -6.2 °C 11.3 °F /  -11.5 °C 30.44in /  1030.7hPa East 5.0mph /  8km/h 6.0mph /  9.7km/h 66% 0.00in /  0mm
12:49 21.0 °F /  -6.1 °C 11.8 °F /  -11.2 °C 30.44in /  1030.7hPa East 3.0mph /  4.8km/h 7.0mph /  11.3km/h 67% 0.00in /  0mm
12:54 21.3 °F /  -5.9 °C 11.7 °F /  -11.3 °C 30.44in /  1030.7hPa ESE 3.0mph /  4.8km/h 9.0mph /  14.5km/h 66% 0.00in /  0mm
12:59 21.0 °F /  -6.1 °C 11.4 °F /  -11.4 °C 30.44in /  1030.7hPa East 3.0mph /  4.8km/h 9.0mph /  14.5km/h 66% 0.00in /  0mm
13:04 21.5 °F /  -5.8 °C 11.9 °F /  -11.2 °C 30.43in /  1030.4hPa East 3.0mph /  4.8km/h 8.0mph /  12.9km/h 66% 0.00in /  0mm
13:09 21.4 °F /  -5.9 °C 11.8 °F /  -11.2 °C 30.43in /  1030.4hPa ESE 2.0mph /  3.2km/h 5.0mph /  8km/h 66% 0.00in /  0mm
13:14 21.5 °F /  -5.8 °C 12.2 °F /  -11 °C 30.43in /  1030.4hPa East 2.0mph /  3.2km/h 7.0mph /  11.3km/h 67% 0.00in /  0mm
13:19 21.4 °F /  -5.9 °C 12.5 °F /  -10.8 °C 30.43in /  1030.4hPa East 6.0mph /  9.7km/h 9.0mph /  14.5km/h 68% 0.00in /  0mm
13:24 21.7 °F /  -5.7 °C 13.1 °F /  -10.5 °C 30.43in /  1030.4hPa ESE 3.0mph /  4.8km/h 9.0mph /  14.5km/h 69% 0.00in /  0mm
13:29 21.4 °F /  -5.9 °C 12.8 °F /  -10.7 °C 30.42in /  1030hPa ENE 5.0mph /  8km/h 6.0mph /  9.7km/h 69% 0.00in /  0mm
13:34 21.1 °F /  -6.1 °C 12.5 °F /  -10.8 °C 30.42in /  1030hPa ENE 3.0mph /  4.8km/h 9.0mph /  14.5km/h 69% 0.00in /  0mm
13:39 20.9 °F /  -6.2 °C 13.0 °F /  -10.6 °C 30.41in /  1029.7hPa ENE 4.0mph /  6.4km/h 9.0mph /  14.5km/h 71% 0.00in /  0mm
13:44 21.0 °F /  -6.1 °C 13.4 °F /  -10.3 °C 30.41in /  1029.7hPa NNE 4.0mph /  6.4km/h 10.0mph /  16.1km/h 72% 0.00in /  0mm
13:49 20.7 °F /  -6.3 °C 13.7 °F /  -10.2 °C 30.41in /  1029.7hPa NE 5.0mph /  8km/h 9.0mph /  14.5km/h 74% 0.00in /  0mm
13:54 20.6 °F /  -6.3 °C 13.9 °F /  -10.1 °C 30.40in /  1029.3hPa NE 5.0mph /  8km/h 9.0mph /  14.5km/h 75% 0.00in /  0mm
13:59 20.5 °F /  -6.4 °C 14.1 °F /  -9.9 °C 30.40in /  1029.3hPa NE 5.0mph /  8km/h 10.0mph /  16.1km/h 76% 0.00in /  0mm
14:04 20.4 °F /  -6.4 °C 14.0 °F /  -10 °C 30.40in /  1029.3hPa NE 5.0mph /  8km/h 10.0mph /  16.1km/h 76% 0.00in /  0mm
14:09 20.6 °F /  -6.3 °C 14.8 °F /  -9.6 °C 30.39in /  1029hPa NE 5.0mph /  8km/h 11.0mph /  17.7km/h 78% 0.00in /  0mm
14:14 20.6 °F /  -6.3 °C 14.5 °F /  -9.7 °C 30.39in /  1029hPa NE 5.0mph /  8km/h 11.0mph /  17.7km/h 77% 0.00in /  0mm
14:19 20.7 °F /  -6.3 °C 14.9 °F /  -9.5 °C 30.38in /  1028.7hPa NE 9.0mph /  14.5km/h 9.0mph /  14.5km/h 78% 0.00in /  0mm
14:24 20.6 °F /  -6.3 °C 14.8 °F /  -9.6 °C 30.37in /  1028.3hPa NE 5.0mph /  8km/h 14.0mph /  22.5km/h 78% 0.00in /  0mm
14:29 20.8 °F /  -6.2 °C 15.3 °F /  -9.3 °C 30.37in /  1028.3hPa NE 6.0mph /  9.7km/h 12.0mph /  19.3km/h 79% 0.00in /  0mm
14:34 20.6 °F /  -6.3 °C 15.1 °F /  -9.4 °C 30.37in /  1028.3hPa NE 8.0mph /  12.9km/h 13.0mph /  20.9km/h 79% 0.00in /  0mm
14:39 20.4 °F /  -6.4 °C 14.9 °F /  -9.5 °C 30.37in /  1028.3hPa NE 6.0mph /  9.7km/h 9.0mph /  14.5km/h 79% 0.00in /  0mm
14:44 20.3 °F /  -6.5 °C 14.8 °F /  -9.6 °C 30.37in /  1028.3hPa East 7.0mph /  11.3km/h 11.0mph /  17.7km/h 79% 0.00in /  0mm
14:49 20.3 °F /  -6.5 °C 14.8 °F /  -9.6 °C 30.37in /  1028.3hPa ENE 3.0mph /  4.8km/h 12.0mph /  19.3km/h 79% 0.00in /  0mm
14:54 20.2 °F /  -6.6 °C 14.7 °F /  -9.6 °C 30.37in /  1028.3hPa NNE 8.0mph /  12.9km/h 13.0mph /  20.9km/h 79% 0.00in /  0mm
14:59 20.2 °F /  -6.6 °C 15.0 °F /  -9.4 °C 30.37in /  1028.3hPa NE 6.0mph /  9.7km/h 13.0mph /  20.9km/h 80% 0.00in /  0mm
15:04 20.3 °F /  -6.5 °C 15.1 °F /  -9.4 °C 30.37in /  1028.3hPa NE 5.0mph /  8km/h 12.0mph /  19.3km/h 80% 0.00in /  0mm
15:09 20.1 °F /  -6.6 °C 14.9 °F /  -9.5 °C 30.37in /  1028.3hPa NE 6.0mph /  9.7km/h 11.0mph /  17.7km/h 80% 0.00in /  0mm
15:14 20.0 °F /  -6.7 °C 14.8 °F /  -9.6 °C 30.37in /  1028.3hPa NE 6.0mph /  9.7km/h 14.0mph /  22.5km/h 80% 0.00in /  0mm
15:19 19.9 °F /  -6.7 °C 15.0 °F /  -9.4 °C 30.36in /  1028hPa NE 7.0mph /  11.3km/h 14.0mph /  22.5km/h 81% 0.00in /  0mm
15:24 20.1 °F /  -6.6 °C 15.2 °F /  -9.3 °C 30.36in /  1028hPa NE 3.0mph /  4.8km/h 11.0mph /  17.7km/h 81% 0.00in /  0mm
15:29 20.3 °F /  -6.5 °C 15.7 °F /  -9.1 °C 30.36in /  1028hPa NE 11.0mph /  17.7km/h 11.0mph /  17.7km/h 82% 0.00in /  0mm
15:34 20.1 °F /  -6.6 °C 15.2 °F /  -9.3 °C 30.36in /  1028hPa NE 5.0mph /  8km/h 11.0mph /  17.7km/h 81% 0.00in /  0mm
15:39 20.2 °F /  -6.6 °C 15.6 °F /  -9.1 °C 30.35in /  1027.7hPa NE 6.0mph /  9.7km/h 11.0mph /  17.7km/h 82% 0.00in /  0mm
15:44 20.4 °F /  -6.4 °C 15.8 °F /  -9 °C 30.35in /  1027.7hPa NE 8.0mph /  12.9km/h 12.0mph /  19.3km/h 82% 0.00in /  0mm
15:49 20.0 °F /  -6.7 °C 15.4 °F /  -9.2 °C 30.35in /  1027.7hPa ENE 7.0mph /  11.3km/h 13.0mph /  20.9km/h 82% 0.00in /  0mm
15:54 20.0 °F /  -6.7 °C 15.4 °F /  -9.2 °C 30.35in /  1027.7hPa NE 4.0mph /  6.4km/h 10.0mph /  16.1km/h 82% 0.00in /  0mm
15:59 20.1 °F /  -6.6 °C 15.5 °F /  -9.2 °C 30.35in /  1027.7hPa NNE 5.0mph /  8km/h 11.0mph /  17.7km/h 82% 0.00in /  0mm
16:04 19.9 °F /  -6.7 °C 15.3 °F /  -9.3 °C 30.35in /  1027.7hPa NE 7.0mph /  11.3km/h 14.0mph /  22.5km/h 82% 0.00in /  0mm
16:09 19.7 °F /  -6.8 °C 15.1 °F /  -9.4 °C 30.35in /  1027.7hPa NE 8.0mph /  12.9km/h 14.0mph /  22.5km/h 82% 0.00in /  0mm
16:14 19.8 °F /  -6.8 °C 15.2 °F /  -9.3 °C 30.35in /  1027.7hPa NE 7.0mph /  11.3km/h 14.0mph /  22.5km/h 82% 0.00in /  0mm
16:19 19.6 °F /  -6.9 °C 15.0 °F /  -9.4 °C 30.35in /  1027.7hPa NE 6.0mph /  9.7km/h 12.0mph /  19.3km/h 82% 0.00in /  0mm
16:24 19.5 °F /  -6.9 °C 14.9 °F /  -9.5 °C 30.35in /  1027.7hPa NE 7.0mph /  11.3km/h 12.0mph /  19.3km/h 82% 0.00in /  0mm
16:29 19.5 °F /  -6.9 °C 14.9 °F /  -9.5 °C 30.34in /  1027.3hPa NE 8.0mph /  12.9km/h 13.0mph /  20.9km/h 82% 0.00in /  0mm
16:34 19.6 °F /  -6.9 °C 15.3 °F /  -9.3 °C 30.34in /  1027.3hPa NNE 7.0mph /  11.3km/h 10.0mph /  16.1km/h 83% 0.00in /  0mm
16:39 19.5 °F /  -6.9 °C 14.9 °F /  -9.5 °C 30.34in /  1027.3hPa NE 7.0mph /  11.3km/h 15.0mph /  24.1km/h 82% 0.00in /  0mm
16:44 19.3 °F /  -7.1 °C 15.0 °F /  -9.4 °C 30.34in /  1027.3hPa NE 7.0mph /  11.3km/h 15.0mph /  24.1km/h 83% 0.00in /  0mm
16:49 19.4 °F /  -7 °C 15.1 °F /  -9.4 °C 30.34in /  1027.3hPa NE 7.0mph /  11.3km/h 13.0mph /  20.9km/h 83% 0.00in /  0mm
16:54 19.2 °F /  -7.1 °C 14.6 °F /  -9.7 °C 30.34in /  1027.3hPa ENE 10.0mph /  16.1km/h 14.0mph /  22.5km/h 82% 0.00in /  0mm
16:59 19.0 °F /  -7.2 °C 14.4 °F /  -9.8 °C 30.34in /  1027.3hPa NE 7.0mph /  11.3km/h 14.0mph /  22.5km/h 82% 0.00in /  0mm
17:04 19.0 °F /  -7.2 °C 14.7 °F /  -9.6 °C 30.34in /  1027.3hPa NNE 5.0mph /  8km/h 14.0mph /  22.5km/h 83% 0.00in /  0mm
17:09 19.0 °F /  -7.2 °C 14.4 °F /  -9.8 °C 30.33in /  1027hPa NE 4.0mph /  6.4km/h 15.0mph /  24.1km/h 82% 0.00in /  0mm
17:14 19.2 °F /  -7.1 °C 14.9 °F /  -9.5 °C 30.33in /  1027hPa NE 8.0mph /  12.9km/h 15.0mph /  24.1km/h 83% 0.00in /  0mm
17:19 19.2 °F /  -7.1 °C 14.6 °F /  -9.7 °C 30.33in /  1027hPa NE 8.0mph /  12.9km/h 14.0mph /  22.5km/h 82% 0.00in /  0mm
17:24 19.3 °F /  -7.1 °C 15.0 °F /  -9.4 °C 30.33in /  1027hPa NE 8.0mph /  12.9km/h 14.0mph /  22.5km/h 83% 0.00in /  0mm
17:29 19.0 °F /  -7.2 °C 14.4 °F /  -9.8 °C 30.33in /  1027hPa NE 8.0mph /  12.9km/h 15.0mph /  24.1km/h 82% 0.00in /  0mm
17:34 18.8 °F /  -7.3 °C 14.5 °F /  -9.7 °C 30.33in /  1027hPa NE 9.0mph /  14.5km/h 15.0mph /  24.1km/h 83% 0.00in /  0mm
17:39 18.9 °F /  -7.3 °C 14.6 °F /  -9.7 °C 30.33in /  1027hPa NE 13.0mph /  20.9km/h 13.0mph /  20.9km/h 83% 0.00in /  0mm
17:44 18.8 °F /  -7.3 °C 14.5 °F /  -9.7 °C 30.33in /  1027hPa NE 8.0mph /  12.9km/h 15.0mph /  24.1km/h 83% 0.00in /  0mm
17:49 18.8 °F /  -7.3 °C 14.5 °F /  -9.7 °C 30.33in /  1027hPa NE 8.0mph /  12.9km/h 15.0mph /  24.1km/h 83% 0.00in /  0mm
17:54 18.7 °F /  -7.4 °C 14.4 °F /  -9.8 °C 30.33in /  1027hPa NE 8.0mph /  12.9km/h 14.0mph /  22.5km/h 83% 0.00in /  0mm
17:59 18.7 °F /  -7.4 °C 14.7 °F /  -9.6 °C 30.33in /  1027hPa NE 9.0mph /  14.5km/h 15.0mph /  24.1km/h 84% 0.00in /  0mm
18:04 18.7 °F /  -7.4 °C 14.4 °F /  -9.8 °C 30.33in /  1027hPa NE 12.0mph /  19.3km/h 14.0mph /  22.5km/h 83% 0.00in /  0mm
18:09 18.7 °F /  -7.4 °C 14.4 °F /  -9.8 °C 30.33in /  1027hPa NE 6.0mph /  9.7km/h 14.0mph /  22.5km/h 83% 0.00in /  0mm
18:14 18.6 °F /  -7.4 °C 14.3 °F /  -9.8 °C 30.33in /  1027hPa NE 8.0mph /  12.9km/h 14.0mph /  22.5km/h 83% 0.00in /  0mm
18:19 18.6 °F /  -7.4 °C 14.6 °F /  -9.7 °C 30.33in /  1027hPa ENE 9.0mph /  14.5km/h 16.0mph /  25.7km/h 84% 0.00in /  0mm
18:24 18.6 °F /  -7.4 °C 14.3 °F /  -9.8 °C 30.33in /  1027hPa NE 8.0mph /  12.9km/h 16.0mph /  25.7km/h 83% 0.00in /  0mm
18:29 18.6 °F /  -7.4 °C 14.6 °F /  -9.7 °C 30.33in /  1027hPa NE 8.0mph /  12.9km/h 16.0mph /  25.7km/h 84% 0.00in /  0mm
18:34 18.6 °F /  -7.4 °C 14.6 °F /  -9.7 °C 30.33in /  1027hPa NE 6.0mph /  9.7km/h 13.0mph /  20.9km/h 84% 0.00in /  0mm
18:39 18.5 °F /  -7.5 °C 14.5 °F /  -9.7 °C 30.32in /  1026.6hPa NE 7.0mph /  11.3km/h 13.0mph /  20.9km/h 84% 0.00in /  0mm
18:44 18.4 °F /  -7.6 °C 14.4 °F /  -9.8 °C 30.33in /  1027hPa NE 7.0mph /  11.3km/h 13.0mph /  20.9km/h 84% 0.00in /  0mm
18:49 18.4 °F /  -7.6 °C 14.6 °F /  -9.7 °C 30.32in /  1026.6hPa ENE 5.0mph /  8km/h 13.0mph /  20.9km/h 85% 0.00in /  0mm
18:54 18.3 °F /  -7.6 °C 14.5 °F /  -9.7 °C 30.33in /  1027hPa NE 8.0mph /  12.9km/h 15.0mph /  24.1km/h 85% 0.00in /  0mm
18:59 18.2 °F /  -7.7 °C 14.4 °F /  -9.8 °C 30.33in /  1027hPa NE 7.0mph /  11.3km/h 15.0mph /  24.1km/h 85% 0.00in /  0mm
19:04 18.2 °F /  -7.7 °C 14.7 °F /  -9.6 °C 30.33in /  1027hPa ENE 5.0mph /  8km/h 9.0mph /  14.5km/h 86% 0.00in /  0mm
19:09 18.2 °F /  -7.7 °C 14.7 °F /  -9.6 °C 30.33in /  1027hPa NE 8.0mph /  12.9km/h 12.0mph /  19.3km/h 86% 0.00in /  0mm
19:14 18.1 °F /  -7.7 °C 14.6 °F /  -9.7 °C 30.33in /  1027hPa NE 10.0mph /  16.1km/h 13.0mph /  20.9km/h 86% 0.00in /  0mm
19:19 18.0 °F /  -7.8 °C 14.5 °F /  -9.7 °C 30.33in /  1027hPa ENE 8.0mph /  12.9km/h 11.0mph /  17.7km/h 86% 0.00in /  0mm
19:24 17.9 °F /  -7.8 °C 14.4 °F /  -9.8 °C 30.32in /  1026.6hPa ENE 5.0mph /  8km/h 11.0mph /  17.7km/h 86% 0.00in /  0mm
19:29 17.7 °F /  -7.9 °C 14.2 °F /  -9.9 °C 30.32in /  1026.6hPa NE 6.0mph /  9.7km/h 14.0mph /  22.5km/h 86% 0.00in /  0mm
19:34 17.6 °F /  -8 °C 14.1 °F /  -9.9 °C 30.32in /  1026.6hPa NE 6.0mph /  9.7km/h 14.0mph /  22.5km/h 86% 0.00in /  0mm
19:39 17.5 °F /  -8.1 °C 14.0 °F /  -10 °C 30.32in /  1026.6hPa NE 7.0mph /  11.3km/h 14.0mph /  22.5km/h 86% 0.00in /  0mm
19:44 17.4 °F /  -8.1 °C 13.9 °F /  -10.1 °C 30.32in /  1026.6hPa NE 9.0mph /  14.5km/h 16.0mph /  25.7km/h 86% 0.00in /  0mm
19:49 17.3 °F /  -8.2 °C 13.8 °F /  -10.1 °C 30.32in /  1026.6hPa NE 9.0mph /  14.5km/h 16.0mph /  25.7km/h 86% 0.00in /  0mm
19:54 17.3 °F /  -8.2 °C 13.8 °F /  -10.1 °C 30.32in /  1026.6hPa NE 8.0mph /  12.9km/h 15.0mph /  24.1km/h 86% 0.00in /  0mm
19:59 17.3 °F /  -8.2 °C 13.8 °F /  -10.1 °C 30.32in /  1026.6hPa NE 4.0mph /  6.4km/h 10.0mph /  16.1km/h 86% 0.00in /  0mm
20:04 17.3 °F /  -8.2 °C 13.8 °F /  -10.1 °C 30.32in /  1026.6hPa NE 9.0mph /  14.5km/h 13.0mph /  20.9km/h 86% 0.00in /  0mm
20:09 17.3 °F /  -8.2 °C 13.8 °F /  -10.1 °C 30.32in /  1026.6hPa ENE 8.0mph /  12.9km/h 15.0mph /  24.1km/h 86% 0.00in /  0mm
20:14 17.2 °F /  -8.2 °C 13.7 °F /  -10.2 °C 30.32in /  1026.6hPa NE 13.0mph /  20.9km/h 16.0mph /  25.7km/h 86% 0.00in /  0mm
20:19 17.1 °F /  -8.3 °C 13.6 °F /  -10.2 °C 30.31in /  1026.3hPa NE 10.0mph /  16.1km/h 16.0mph /  25.7km/h 86% 0.00in /  0mm
20:24 17.0 °F /  -8.3 °C 13.5 °F /  -10.3 °C 30.31in /  1026.3hPa NE 9.0mph /  14.5km/h 15.0mph /  24.1km/h 86% 0.00in /  0mm
20:29 16.9 °F /  -8.4 °C 13.4 °F /  -10.3 °C 30.31in /  1026.3hPa NE 5.0mph /  8km/h 21.0mph /  33.8km/h 86% 0.00in /  0mm
20:34 16.9 °F /  -8.4 °C 13.4 °F /  -10.3 °C 30.31in /  1026.3hPa NE 8.0mph /  12.9km/h 21.0mph /  33.8km/h 86% 0.00in /  0mm
20:39 16.8 °F /  -8.4 °C 13.3 °F /  -10.4 °C 30.31in /  1026.3hPa NE 7.0mph /  11.3km/h 15.0mph /  24.1km/h 86% 0.00in /  0mm
20:44 16.9 °F /  -8.4 °C 13.4 °F /  -10.3 °C 30.31in /  1026.3hPa ENE 5.0mph /  8km/h 12.0mph /  19.3km/h 86% 0.00in /  0mm
20:49 16.9 °F /  -8.4 °C 13.4 °F /  -10.3 °C 30.31in /  1026.3hPa East 5.0mph /  8km/h 12.0mph /  19.3km/h 86% 0.00in /  0mm
20:54 16.9 °F /  -8.4 °C 13.4 °F /  -10.3 °C 30.31in /  1026.3hPa NE 11.0mph /  17.7km/h 13.0mph /  20.9km/h 86% 0.00in /  0mm
20:59 16.9 °F /  -8.4 °C 13.4 °F /  -10.3 °C 30.31in /  1026.3hPa NNE 7.0mph /  11.3km/h 14.0mph /  22.5km/h 86% 0.00in /  0mm
21:04 16.9 °F /  -8.4 °C 13.4 °F /  -10.3 °C 30.30in /  1026hPa NE 4.0mph /  6.4km/h 12.0mph /  19.3km/h 86% 0.00in /  0mm
21:09 17.0 °F /  -8.3 °C 13.5 °F /  -10.3 °C 30.30in /  1026hPa ENE 7.0mph /  11.3km/h 14.0mph /  22.5km/h 86% 0.00in /  0mm
21:14 17.0 °F /  -8.3 °C 13.5 °F /  -10.3 °C 30.30in /  1026hPa ENE 6.0mph /  9.7km/h 14.0mph /  22.5km/h 86% 0.00in /  0mm
21:19 17.1 °F /  -8.3 °C 13.6 °F /  -10.2 °C 30.30in /  1026hPa ENE 6.0mph /  9.7km/h 13.0mph /  20.9km/h 86% 0.00in /  0mm
21:24 17.1 °F /  -8.3 °C 13.6 °F /  -10.2 °C 30.30in /  1026hPa NE 4.0mph /  6.4km/h 14.0mph /  22.5km/h 86% 0.00in /  0mm
21:29 17.2 °F /  -8.2 °C 13.7 °F /  -10.2 °C 30.30in /  1026hPa NE 4.0mph /  6.4km/h 11.0mph /  17.7km/h 86% 0.00in /  0mm
21:34 17.3 °F /  -8.2 °C 13.8 °F /  -10.1 °C 30.29in /  1025.6hPa NE 5.0mph /  8km/h 11.0mph /  17.7km/h 86% 0.00in /  0mm
21:39 17.3 °F /  -8.2 °C 13.8 °F /  -10.1 °C 30.29in /  1025.6hPa NE 4.0mph /  6.4km/h 11.0mph /  17.7km/h 86% 0.00in /  0mm
21:44 17.3 °F /  -8.2 °C 13.8 °F /  -10.1 °C 30.29in /  1025.6hPa NE 7.0mph /  11.3km/h 13.0mph /  20.9km/h 86% 0.00in /  0mm
21:49 17.3 °F /  -8.2 °C 13.8 °F /  -10.1 °C 30.28in /  1025.3hPa ENE 9.0mph /  14.5km/h 13.0mph /  20.9km/h 86% 0.00in /  0mm
21:54 17.3 °F /  -8.2 °C 13.8 °F /  -10.1 °C 30.28in /  1025.3hPa NE 3.0mph /  4.8km/h 12.0mph /  19.3km/h 86% 0.00in /  0mm
21:59 17.3 °F /  -8.2 °C 13.8 °F /  -10.1 °C 30.28in /  1025.3hPa NE 7.0mph /  11.3km/h 11.0mph /  17.7km/h 86% 0.00in /  0mm
22:04 17.4 °F /  -8.1 °C 13.9 °F /  -10.1 °C 30.28in /  1025.3hPa NE 11.0mph /  17.7km/h 11.0mph /  17.7km/h 86% 0.00in /  0mm
22:09 17.5 °F /  -8.1 °C 14.0 °F /  -10 °C 30.28in /  1025.3hPa ENE 2.0mph /  3.2km/h 11.0mph /  17.7km/h 86% 0.00in /  0mm
22:14 17.4 °F /  -8.1 °C 13.9 °F /  -10.1 °C 30.28in /  1025.3hPa NE 6.0mph /  9.7km/h 11.0mph /  17.7km/h 86% 0.00in /  0mm
22:19 17.5 °F /  -8.1 °C 14.0 °F /  -10 °C 30.28in /  1025.3hPa NE 6.0mph /  9.7km/h 11.0mph /  17.7km/h 86% 0.00in /  0mm
22:24 17.4 °F /  -8.1 °C 13.9 °F /  -10.1 °C 30.27in /  1024.9hPa NE 7.0mph /  11.3km/h 12.0mph /  19.3km/h 86% 0.00in /  0mm
22:29 17.4 °F /  -8.1 °C 13.9 °F /  -10.1 °C 30.27in /  1024.9hPa NE 7.0mph /  11.3km/h 15.0mph /  24.1km/h 86% 0.00in /  0mm
22:34 17.4 °F /  -8.1 °C 13.9 °F /  -10.1 °C 30.27in /  1024.9hPa ENE 8.0mph /  12.9km/h 14.0mph /  22.5km/h 86% 0.00in /  0mm
22:39 17.3 °F /  -8.2 °C 13.8 °F /  -10.1 °C 30.26in /  1024.6hPa NE 5.0mph /  8km/h 14.0mph /  22.5km/h 86% 0.00in /  0mm
22:44 17.3 °F /  -8.2 °C 13.8 °F /  -10.1 °C 30.27in /  1024.9hPa ENE 8.0mph /  12.9km/h 12.0mph /  19.3km/h 86% 0.00in /  0mm
22:49 17.3 °F /  -8.2 °C 13.8 °F /  -10.1 °C 30.27in /  1024.9hPa NNE 10.0mph /  16.1km/h 16.0mph /  25.7km/h 86% 0.00in /  0mm
22:54 17.3 °F /  -8.2 °C 13.8 °F /  -10.1 °C 30.26in /  1024.6hPa NE 5.0mph /  8km/h 16.0mph /  25.7km/h 86% 0.00in /  0mm
22:59 17.3 °F /  -8.2 °C 13.8 °F /  -10.1 °C 30.27in /  1024.9hPa NE 5.0mph /  8km/h 14.0mph /  22.5km/h 86% 0.00in /  0mm
23:04 17.3 °F /  -8.2 °C 13.8 °F /  -10.1 °C 30.26in /  1024.6hPa ENE 10.0mph /  16.1km/h 17.0mph /  27.4km/h 86% 0.00in /  0mm
23:09 17.3 °F /  -8.2 °C 13.8 °F /  -10.1 °C 30.26in /  1024.6hPa NE 8.0mph /  12.9km/h 17.0mph /  27.4km/h 86% 0.00in /  0mm
23:14 17.3 °F /  -8.2 °C 13.8 °F /  -10.1 °C 30.26in /  1024.6hPa NE 8.0mph /  12.9km/h 16.0mph /  25.7km/h 86% 0.00in /  0mm
23:19 17.3 °F /  -8.2 °C 13.8 °F /  -10.1 °C 30.25in /  1024.3hPa NE 7.0mph /  11.3km/h 17.0mph /  27.4km/h 86% 0.00in /  0mm
23:24 17.4 °F /  -8.1 °C 13.9 °F /  -10.1 °C 30.25in /  1024.3hPa NE 8.0mph /  12.9km/h 17.0mph /  27.4km/h 86% 0.00in /  0mm
23:29 17.4 °F /  -8.1 °C 13.9 °F /  -10.1 °C 30.25in /  1024.3hPa NE 6.0mph /  9.7km/h 11.0mph /  17.7km/h 86% 0.00in /  0mm
23:34 17.5 °F /  -8.1 °C 14.0 °F /  -10 °C 30.25in /  1024.3hPa NE 3.0mph /  4.8km/h 12.0mph /  19.3km/h 86% 0.00in /  0mm
23:39 17.5 °F /  -8.1 °C 14.0 °F /  -10 °C 30.25in /  1024.3hPa ENE 8.0mph /  12.9km/h 15.0mph /  24.1km/h 86% 0.00in /  0mm
23:44 17.5 °F /  -8.1 °C 14.0 °F /  -10 °C 30.25in /  1024.3hPa NE 6.0mph /  9.7km/h 15.0mph /  24.1km/h 86% 0.00in /  0mm
23:49 17.5 °F /  -8.1 °C 14.0 °F /  -10 °C 30.25in /  1024.3hPa NE 10.0mph /  16.1km/h 12.0mph /  19.3km/h 86% 0.00in /  0mm
23:54 17.5 °F /  -8.1 °C 14.0 °F /  -10 °C 30.24in /  1023.9hPa NE 7.0mph /  11.3km/h 10.0mph /  16.1km/h 86% 0.00in /  0mm
23:59 17.5 °F /  -8.1 °C 14.0 °F /  -10 °C 30.24in /  1023.9hPa ENE 8.0mph /  12.9km/h 11.0mph /  17.7km/h 86% 0.00in /  0mm
Buffalo, New York, USA
Compliments of Weather Underground - 2.5 mb